Time;durP1;ratioP1;P1;durP2;ratioP2;P2;SDS_P1;SDS_P2;PMS_P1;PMS_P2;Temp;Humidity;BMP_temperature;BMP_pressure;BME280_temperature;BME280_humidity;BME280_pressure;Samples;Min_cycle;Max_cycle;Signal;HPM_P1;HPM_P2
2023/09/01 00:03:51;;;;;;;8.40;1.98;;;;;;;24.78;100.00;101050.66;20993627;27;20048;-74
2023/09/01 00:14:13;;;;;;;6.82;2.30;;;;;;;24.73;100.00;101058.06;20988406;28;20068;-74
2023/09/01 00:24:38;;;;;;;10.30;2.78;;;;;;;24.69;100.00;101052.81;20966766;28;20449;-74
2023/09/01 00:35:03;;;;;;;8.32;2.10;;;;;;;24.48;100.00;101043.72;20971340;28;20045;-74
2023/09/01 00:45:28;;;;;;;8.68;2.55;;;;;;;24.51;100.00;101043.59;20991144;28;20055;-74
2023/09/01 00:55:52;;;;;;;7.20;2.17;;;;;;;24.47;100.00;101036.56;20995903;28;20131;-73
2023/09/01 01:06:25;;;;;;;7.72;1.92;;;;;;;24.43;100.00;101027.69;20994197;28;20056;-73
2023/09/01 01:16:48;;;;;;;7.60;2.08;;;;;;;24.32;100.00;101012.84;20959334;28;20051;-74
2023/09/01 01:27:13;;;;;;;7.68;2.03;;;;;;;24.23;100.00;101019.44;20982155;28;20055;-74
2023/09/01 01:37:43;;;;;;;6.10;2.22;;;;;;;24.19;100.00;101026.78;20995394;28;20155;-74
2023/09/01 01:48:07;;;;;;;6.32;2.05;;;;;;;24.07;100.00;101027.19;20954914;28;20044;-74
2023/09/01 01:58:30;;;;;;;8.85;2.17;;;;;;;24.04;100.00;101015.63;20980275;28;20045;-73
2023/09/01 02:08:54;;;;;;;6.45;2.08;;;;;;;24.11;100.00;101009.94;20962424;28;20052;-73
2023/09/01 02:19:16;;;;;;;5.43;1.80;;;;;;;24.00;100.00;101017.56;20956035;28;20048;-73
2023/09/01 02:29:41;;;;;;;10.15;1.88;;;;;;;23.90;100.00;101013.41;20963953;28;20053;-73
2023/09/01 02:40:10;;;;;;;7.97;2.22;;;;;;;23.94;100.00;101014.19;20971195;28;20056;-73
2023/09/01 02:50:34;;;;;;;5.88;2.25;;;;;;;23.95;100.00;101013.25;20957874;28;20049;-74
2023/09/01 03:00:57;;;;;;;7.07;2.33;;;;;;;23.96;100.00;101004.25;20976913;28;20063;-74
2023/09/01 03:11:21;;;;;;;7.97;1.90;;;;;;;23.98;100.00;101013.13;20933025;28;20049;-73
2023/09/01 03:21:44;;;;;;;9.50;2.53;;;;;;;24.22;100.00;101010.47;20958890;28;20079;-74
2023/09/01 03:32:10;;;;;;;10.05;2.33;;;;;;;24.38;99.92;101005.38;20988029;28;20044;-73
2023/09/01 03:42:32;;;;;;;8.45;2.22;;;;;;;24.36;99.49;101000.97;20953925;28;20052;-74
2023/09/01 03:52:56;;;;;;;8.65;2.45;;;;;;;24.34;99.66;101010.97;20958080;28;20128;-74
2023/09/01 04:03:19;;;;;;;8.35;1.90;;;;;;;24.47;99.48;101015.84;20967530;28;20153;-73
2023/09/01 04:13:44;;;;;;;7.22;1.98;;;;;;;24.69;99.19;101010.50;20958164;28;20147;-74
2023/09/01 04:24:08;;;;;;;8.25;2.13;;;;;;;25.01;98.92;101017.34;20976465;28;20044;-74
2023/09/01 04:34:33;;;;;;;8.63;2.05;;;;;;;25.37;98.43;101020.41;20992403;28;20076;-74
2023/09/01 04:44:55;;;;;;;4.93;2.00;;;;;;;25.84;97.82;101036.47;20965001;28;20499;-74
2023/09/01 04:55:20;;;;;;;7.18;2.10;;;;;;;26.36;94.14;101045.91;20981648;28;20840;-74
2023/09/01 05:05:43;;;;;;;8.82;2.60;;;;;;;26.95;92.75;101054.91;20959012;28;20159;-74
2023/09/01 05:16:10;;;;;;;6.00;1.85;;;;;;;27.57;87.01;101056.38;20962045;28;20052;-74
2023/09/01 05:26:34;;;;;;;7.18;1.92;;;;;;;28.32;87.10;101056.16;20957337;28;20044;-74
2023/09/01 05:36:58;;;;;;;5.88;1.70;;;;;;;29.04;72.27;101055.81;20964450;28;20053;-74
2023/09/01 05:47:21;;;;;;;7.80;1.95;;;;;;;29.68;60.90;101044.84;20995322;28;20072;-75
2023/09/01 05:57:46;;;;;;;5.55;1.75;;;;;;;30.55;56.80;101039.56;20947384;28;20083;-74
2023/09/01 06:08:09;;;;;;;6.10;1.80;;;;;;;31.23;48.18;101058.81;20996323;28;20068;-74
2023/09/01 06:18:34;;;;;;;5.93;1.92;;;;;;;31.54;43.94;101068.59;20990803;28;20048;-74
2023/09/01 06:28:56;;;;;;;7.18;1.85;;;;;;;32.01;45.11;101069.00;20977662;28;20488;-75
2023/09/01 06:39:20;;;;;;;5.97;1.88;;;;;;;32.29;41.55;101083.53;20946535;28;20056;-72
2023/09/01 06:49:42;;;;;;;5.95;1.55;;;;;;;32.64;41.29;101070.94;20941089;28;20049;-73
2023/09/01 07:10:23;;;;;;;8.10;1.83;;;;;;;33.22;42.26;101089.53;23094616;23;20050;-74
2023/09/01 07:20:48;;;;;;;4.50;1.50;;;;;;;33.62;39.99;101094.78;20626200;28;20042;-74
2023/09/01 07:31:13;;;;;;;7.28;2.20;;;;;;;34.09;40.42;101104.00;20611254;28;20121;-74
2023/09/01 07:41:35;;;;;;;8.10;2.00;;;;;;;34.32;41.46;101114.13;20644361;28;20046;-73
2023/09/01 07:51:59;;;;;;;8.20;2.45;;;;;;;34.75;40.89;101133.56;20654331;28;20054;-74
2023/09/01 08:02:22;;;;;;;7.33;2.30;;;;;;;34.46;41.18;101119.41;20653378;28;20367;-74
2023/09/01 08:12:45;;;;;;;7.90;2.00;;;;;;;34.95;42.42;101112.75;20646428;28;20457;-73
2023/09/01 08:23:08;;;;;;;7.60;1.87;;;;;;;35.45;43.53;101130.59;20651141;28;20050;-74
2023/09/01 08:33:33;;;;;;;8.45;2.28;;;;;;;35.26;43.11;101122.13;20653135;28;20647;-74
2023/09/01 08:43:58;;;;;;;9.73;2.22;;;;;;;35.45;43.68;101128.72;20639913;28;20046;-74
2023/09/01 08:54:23;;;;;;;9.52;3.03;;;;;;;35.63;44.97;101122.72;20651412;28;20055;-73
2023/09/01 09:04:47;;;;;;;8.25;2.28;;;;;;;35.73;46.36;101124.59;20644462;28;20057;-74
2023/09/01 09:15:16;;;;;;;;;;;;;;;35.65;45.88;101127.06;20655567;28;20054;-74
2023/09/01 09:25:39;;;;;;;8.32;2.47;;;;;;;35.99;45.22;101124.25;20637777;28;19921;-74
2023/09/01 09:36:04;;;;;;;15.98;2.67;;;;;;;36.58;44.36;101113.59;20645683;28;20050;-74
2023/09/01 09:46:41;;;;;;;7.53;2.20;;;;;;;36.75;42.42;101112.16;20643558;28;20149;-74
2023/09/01 09:57:08;;;;;;;12.35;2.50;;;;;;;36.73;41.65;101113.16;20631321;28;20501;-74
2023/09/01 10:07:31;;;;;;;8.02;2.72;;;;;;;36.75;42.83;101113.03;20598473;28;20109;-75
2023/09/01 10:17:58;;;;;;;12.73;2.80;;;;;;;36.95;43.25;101127.78;20662738;28;20047;-75
2023/09/01 10:28:22;;;;;;;10.27;2.33;;;;;;;37.01;43.81;101128.09;20632779;28;20904;-74
2023/09/01 10:38:47;;;;;;;9.50;2.43;;;;;;;36.69;42.86;101133.69;20654157;28;20414;-74
2023/09/01 10:49:10;;;;;;;;;;;;;;;36.41;43.81;101134.34;20642875;28;20097;-75
2023/09/01 10:59:36;;;;;;;9.15;2.50;;;;;;;36.05;44.28;101141.09;20670789;28;20019;-74
2023/09/01 11:09:58;;;;;;;11.75;2.55;;;;;;;35.75;44.93;101133.56;20657211;28;20190;-75
2023/09/01 11:20:30;;;;;;;9.65;2.60;;;;;;;35.74;44.28;101120.84;20640693;28;20051;-75
2023/09/01 11:30:54;;;;;;;9.48;2.40;;;;;;;35.71;43.20;101109.25;20651280;28;20045;-74
2023/09/01 11:41:20;;;;;;;9.45;2.22;;;;;;;35.84;44.03;101096.22;20630527;28;20126;-74
2023/09/01 11:51:43;;;;;;;9.70;2.88;;;;;;;35.31;47.01;101082.31;20652996;28;20058;-73
2023/09/01 12:02:09;;;;;;;10.93;2.67;;;;;;;35.14;48.41;101069.94;20644678;28;20136;-73
2023/09/01 12:12:38;;;;;;;10.77;2.90;;;;;;;34.72;50.58;101070.72;20602594;28;20141;-73
2023/09/01 12:23:03;;;;;;;10.00;2.55;;;;;;;34.30;54.32;101064.00;20590075;28;20913;-75
2023/09/01 12:33:25;;;;;;;8.85;2.55;;;;;;;33.87;59.47;101052.75;20607808;28;20042;-73
2023/09/01 12:43:50;;;;;;;9.57;2.63;;;;;;;33.70;57.29;101059.47;20631090;28;20042;-73
2023/09/01 12:54:15;;;;;;;7.55;2.20;;;;;;;33.40;60.51;101056.31;20637557;28;22019;-74
2023/09/01 13:04:40;;;;;;;9.73;2.40;;;;;;;33.35;61.70;101047.56;20668944;28;20053;-72
2023/09/01 13:15:03;;;;;;;9.07;2.40;;;;;;;33.36;58.38;101043.81;20627064;28;20096;-72
2023/09/01 13:25:27;;;;;;;13.70;2.70;;;;;;;33.32;57.38;101039.59;20642971;28;20124;-73
2023/09/01 13:35:49;;;;;;;12.68;2.92;;;;;;;33.11;65.87;101034.69;20653358;28;20390;-73
2023/09/01 13:46:22;;;;;;;6.15;2.58;;;;;;;32.79;65.11;101036.19;20656032;28;20148;-73
2023/09/01 13:56:44;;;;;;;8.95;2.35;;;;;;;32.80;61.17;101029.72;20619252;28;20050;-73
2023/09/01 14:07:08;;;;;;;11.20;3.10;;;;;;;32.39;63.26;101025.34;20666114;28;20100;-73
2023/09/01 14:17:31;;;;;;;14.18;2.92;;;;;;;32.52;64.36;101029.94;20651032;28;20521;-73
2023/09/01 14:27:55;;;;;;;8.50;2.47;;;;;;;32.34;66.93;101027.53;20638290;28;20095;-72
2023/09/01 14:38:18;;;;;;;8.38;2.70;;;;;;;32.27;71.53;101033.53;20644565;28;20397;-74
2023/09/01 14:48:45;;;;;;;9.33;2.67;;;;;;;32.03;75.52;101022.44;20649269;28;20052;-74
2023/09/01 14:59:08;;;;;;;9.77;2.70;;;;;;;31.80;78.09;101015.84;20649818;28;20054;-73
2023/09/01 15:09:32;;;;;;;7.22;2.55;;;;;;;31.48;81.56;101015.28;20647726;28;20046;-73
2023/09/01 15:19:54;;;;;;;11.52;2.28;;;;;;;31.39;83.93;101015.00;20648837;28;20515;-73
2023/09/01 15:30:18;;;;;;;8.27;2.00;;;;;;;31.15;85.44;100998.41;20649332;28;20112;-74
2023/09/01 15:40:41;;;;;;;7.43;2.50;;;;;;;31.10;85.21;101004.19;20655903;28;20057;-74
2023/09/01 15:51:06;;;;;;;6.93;2.40;;;;;;;30.83;89.10;101009.56;20663668;28;20055;-73
2023/09/01 16:01:28;;;;;;;10.95;2.80;;;;;;;30.40;93.44;101011.38;20616085;28;20077;-73
2023/09/01 16:11:52;;;;;;;11.23;2.65;;;;;;;30.18;95.47;101023.72;20660469;28;20050;-74
2023/09/01 16:22:15;;;;;;;12.68;2.75;;;;;;;30.00;97.66;101023.00;20640858;28;20116;-73
2023/09/01 16:32:40;;;;;;;10.13;2.67;;;;;;;29.89;97.78;101023.63;20653062;28;20046;-73
2023/09/01 16:43:02;;;;;;;10.45;2.97;;;;;;;29.72;98.21;101026.50;20655455;28;20050;-73
2023/09/01 16:53:26;;;;;;;9.50;2.60;;;;;;;29.52;97.97;101045.84;20646000;28;20054;-73
2023/09/01 17:03:48;;;;;;;8.35;2.53;;;;;;;29.29;96.60;101041.69;20641033;28;20058;-73
2023/09/01 17:14:13;;;;;;;9.32;3.35;;;;;;;29.15;96.91;101055.19;20645218;28;20402;-74
2023/09/01 17:24:36;;;;;;;9.10;2.88;;;;;;;29.05;98.19;101062.13;20607737;28;20050;-73
2023/09/01 17:35:00;;;;;;;9.73;2.88;;;;;;;28.87;99.27;101058.63;20623010;28;20054;-74
2023/09/01 17:45:22;;;;;;;10.88;3.17;;;;;;;28.74;100.00;101074.72;20651872;28;20128;-73
2023/09/01 17:55:49;;;;;;;10.35;3.10;;;;;;;28.62;100.00;101075.34;20649272;28;20186;-73
2023/09/01 18:06:13;;;;;;;12.10;4.25;;;;;;;28.45;100.00;101081.69;20648192;28;20406;-73
2023/09/01 18:16:37;;;;;;;9.35;2.80;;;;;;;28.18;100.00;101083.16;20631573;28;20405;-74
2023/09/01 18:27:00;;;;;;;8.32;2.97;;;;;;;28.07;100.00;101096.38;20639734;28;20073;-72
2023/09/01 18:37:25;;;;;;;5.53;2.40;;;;;;;27.92;100.00;101094.44;20627029;28;20054;-73
2023/09/01 18:47:48;;;;;;;11.43;3.28;;;;;;;27.82;100.00;101085.03;20650268;28;20161;-73
2023/09/01 18:58:13;;;;;;;9.85;3.30;;;;;;;27.68;100.00;101089.31;20629103;28;20159;-72
2023/09/01 19:08:37;;;;;;;10.05;3.40;;;;;;;27.45;100.00;101094.94;20624102;28;20172;-74
2023/09/01 19:19:02;;;;;;;10.68;3.00;;;;;;;27.38;100.00;101090.78;20619484;28;20089;-74
2023/09/01 19:29:26;;;;;;;8.15;3.30;;;;;;;27.26;100.00;101099.50;20656002;28;20133;-73
2023/09/01 19:39:50;;;;;;;7.53;3.22;;;;;;;27.11;100.00;101098.41;20637992;28;20065;-73
2023/09/01 19:50:14;;;;;;;9.88;3.70;;;;;;;26.77;100.00;101101.81;20676131;28;20052;-73
2023/09/01 20:00:41;;;;;;;9.45;3.22;;;;;;;26.68;100.00;101104.03;20624794;28;20078;-73
2023/09/01 20:11:05;;;;;;;11.13;3.10;;;;;;;26.50;100.00;101105.75;20639323;28;20046;-73
2023/09/01 20:21:30;;;;;;;7.03;3.20;;;;;;;26.33;100.00;101094.78;20648762;28;20050;-74
2023/09/01 20:31:52;;;;;;;8.63;3.17;;;;;;;26.24;100.00;101106.00;20633567;28;20046;-73
2023/09/01 20:42:18;;;;;;;9.35;3.33;;;;;;;25.94;100.00;101110.88;20662008;28;20046;-74
2023/09/01 20:52:41;;;;;;;7.63;2.90;;;;;;;25.87;100.00;101101.28;20641649;28;20045;-74
2023/09/01 21:03:05;;;;;;;6.63;3.28;;;;;;;25.72;100.00;101100.09;20633910;28;20065;-74
2023/09/01 21:13:28;;;;;;;9.05;3.13;;;;;;;25.61;100.00;101099.66;20661189;28;20049;-73
2023/09/01 21:23:52;;;;;;;10.70;3.35;;;;;;;25.55;100.00;101105.28;20667073;28;20083;-74
2023/09/01 21:34:14;;;;;;;8.90;2.90;;;;;;;25.44;100.00;101099.44;20640238;28;20534;-74
2023/09/01 21:44:38;;;;;;;9.95;3.28;;;;;;;25.42;100.00;101096.78;20653409;28;20054;-74
2023/09/01 21:55:01;;;;;;;9.35;2.92;;;;;;;25.47;100.00;101092.06;20664733;28;20049;-73
2023/09/01 22:05:25;;;;;;;9.98;3.50;;;;;;;25.54;100.00;101085.47;20659549;28;20060;-73
2023/09/01 22:15:47;;;;;;;10.02;2.67;;;;;;;25.55;100.00;101070.13;20633156;28;20489;-73
2023/09/01 22:26:11;;;;;;;12.65;2.75;;;;;;;25.44;100.00;101056.19;20645497;28;20066;-73
2023/09/01 22:36:33;;;;;;;10.25;2.80;;;;;;;25.45;100.00;101048.00;20635764;28;20058;-74
2023/09/01 22:46:58;;;;;;;8.25;2.70;;;;;;;25.36;100.00;101046.56;20622719;28;20046;-75
2023/09/01 22:57:20;;;;;;;8.23;3.08;;;;;;;25.34;100.00;101050.25;20653432;28;20046;-74
2023/09/01 23:07:45;;;;;;;10.25;3.30;;;;;;;25.38;100.00;101050.09;20630684;28;20057;-75
2023/09/01 23:18:08;;;;;;;8.80;2.58;;;;;;;25.25;100.00;101039.84;20641956;28;20055;-74
2023/09/01 23:28:34;;;;;;;11.05;3.15;;;;;;;25.23;100.00;101034.47;20630669;28;20047;-73
2023/09/01 23:38:56;;;;;;;9.50;2.60;;;;;;;25.23;100.00;101031.78;20643696;28;20144;-74
2023/09/01 23:49:21;;;;;;;8.73;3.00;;;;;;;25.20;100.00;101028.34;20640167;28;20062;-73
2023/09/01 23:59:44;;;;;;;12.00;3.13;;;;;;;25.19;100.00;101030.16;20648873;28;20050;-73
